sensor_id;sensor_type;location;lat;lon;timestamp;P1;durP1;ratioP1;P2;durP2;ratioP2
9661;SDS011;24982;52.344;12.990;2023-08-01T00:00:29;6.28;;;3.67;;
9661;SDS011;24982;52.344;12.990;2023-08-01T00:03:32;3.63;;;3.30;;
9661;SDS011;24982;52.344;12.990;2023-08-01T00:06:35;3.95;;;3.10;;
9661;SDS011;24982;52.344;12.990;2023-08-01T00:09:37;3.50;;;3.20;;
9661;SDS011;24982;52.344;12.990;2023-08-01T00:12:39;5.63;;;3.03;;
9661;SDS011;24982;52.344;12.990;2023-08-01T00:15:41;4.53;;;2.97;;
9661;SDS011;24982;52.344;12.990;2023-08-01T00:18:43;3.75;;;2.70;;
9661;SDS011;24982;52.344;12.990;2023-08-01T00:21:46;3.33;;;3.03;;
9661;SDS011;24982;52.344;12.990;2023-08-01T00:24:48;4.18;;;3.00;;
9661;SDS011;24982;52.344;12.990;2023-08-01T00:27:50;3.55;;;2.97;;
9661;SDS011;24982;52.344;12.990;2023-08-01T00:31:00;3.92;;;2.88;;
9661;SDS011;24982;52.344;12.990;2023-08-01T00:34:03;3.05;;;2.80;;
9661;SDS011;24982;52.344;12.990;2023-08-01T00:37:07;4.35;;;2.75;;
9661;SDS011;24982;52.344;12.990;2023-08-01T00:40:09;3.13;;;2.88;;
9661;SDS011;24982;52.344;12.990;2023-08-01T00:43:11;2.90;;;2.70;;
9661;SDS011;24982;52.344;12.990;2023-08-01T00:46:13;3.65;;;3.10;;
9661;SDS011;24982;52.344;12.990;2023-08-01T00:49:15;3.13;;;2.83;;
9661;SDS011;24982;52.344;12.990;2023-08-01T00:52:19;5.00;;;3.20;;
9661;SDS011;24982;52.344;12.990;2023-08-01T00:55:21;5.28;;;3.40;;
9661;SDS011;24982;52.344;12.990;2023-08-01T00:58:24;2.90;;;2.70;;
9661;SDS011;24982;52.344;12.990;2023-08-01T01:01:26;4.43;;;3.03;;
9661;SDS011;24982;52.344;12.990;2023-08-01T01:04:28;3.50;;;2.97;;
9661;SDS011;24982;52.344;12.990;2023-08-01T01:07:32;4.22;;;3.05;;
9661;SDS011;24982;52.344;12.990;2023-08-01T01:10:35;3.25;;;2.92;;
9661;SDS011;24982;52.344;12.990;2023-08-01T01:13:37;2.97;;;2.78;;
9661;SDS011;24982;52.344;12.990;2023-08-01T01:16:39;3.47;;;3.17;;
9661;SDS011;24982;52.344;12.990;2023-08-01T01:19:40;3.53;;;3.20;;
9661;SDS011;24982;52.344;12.990;2023-08-01T01:22:44;6.88;;;3.33;;
9661;SDS011;24982;52.344;12.990;2023-08-01T01:25:46;3.45;;;3.15;;
9661;SDS011;24982;52.344;12.990;2023-08-01T01:28:50;6.05;;;3.42;;
9661;SDS011;24982;52.344;12.990;2023-08-01T01:31:52;4.32;;;3.30;;
9661;SDS011;24982;52.344;12.990;2023-08-01T01:34:55;4.75;;;3.53;;
9661;SDS011;24982;52.344;12.990;2023-08-01T01:37:58;4.10;;;3.70;;
9661;SDS011;24982;52.344;12.990;2023-08-01T01:41:03;4.45;;;3.80;;
9661;SDS011;24982;52.344;12.990;2023-08-01T01:44:05;5.15;;;3.97;;
9661;SDS011;24982;52.344;12.990;2023-08-01T01:47:10;3.83;;;3.47;;
9661;SDS011;24982;52.344;12.990;2023-08-01T01:50:12;4.50;;;3.60;;
9661;SDS011;24982;52.344;12.990;2023-08-01T01:53:16;4.50;;;4.10;;
9661;SDS011;24982;52.344;12.990;2023-08-01T01:56:18;4.13;;;3.80;;
9661;SDS011;24982;52.344;12.990;2023-08-01T01:59:20;5.28;;;3.75;;
9661;SDS011;24982;52.344;12.990;2023-08-01T02:02:22;4.72;;;4.30;;
9661;SDS011;24982;52.344;12.990;2023-08-01T02:05:24;5.57;;;3.83;;
9661;SDS011;24982;52.344;12.990;2023-08-01T02:08:27;6.15;;;3.88;;
9661;SDS011;24982;52.344;12.990;2023-08-01T02:11:29;4.97;;;3.80;;
9661;SDS011;24982;52.344;12.990;2023-08-01T02:14:31;4.30;;;3.90;;
9661;SDS011;24982;52.344;12.990;2023-08-01T02:17:33;4.82;;;3.72;;
9661;SDS011;24982;52.344;12.990;2023-08-01T02:20:35;4.13;;;3.67;;
9661;SDS011;24982;52.344;12.990;2023-08-01T02:23:39;6.20;;;4.00;;
9661;SDS011;24982;52.344;12.990;2023-08-01T02:26:41;4.05;;;3.65;;
9661;SDS011;24982;52.344;12.990;2023-08-01T02:29:43;4.00;;;3.60;;
9661;SDS011;24982;52.344;12.990;2023-08-01T02:32:45;4.13;;;3.70;;
9661;SDS011;24982;52.344;12.990;2023-08-01T02:35:47;3.60;;;3.30;;
9661;SDS011;24982;52.344;12.990;2023-08-01T02:38:50;4.05;;;3.35;;
9661;SDS011;24982;52.344;12.990;2023-08-01T02:41:52;3.65;;;3.33;;
9661;SDS011;24982;52.344;12.990;2023-08-01T02:44:54;4.00;;;3.55;;
9661;SDS011;24982;52.344;12.990;2023-08-01T02:47:57;4.22;;;3.45;;
9661;SDS011;24982;52.344;12.990;2023-08-01T02:50:59;5.55;;;3.30;;
9661;SDS011;24982;52.344;12.990;2023-08-01T02:54:03;4.85;;;3.47;;
9661;SDS011;24982;52.344;12.990;2023-08-01T02:57:05;4.50;;;3.55;;
9661;SDS011;24982;52.344;12.990;2023-08-01T03:00:07;4.20;;;3.15;;
9661;SDS011;24982;52.344;12.990;2023-08-01T03:03:11;3.50;;;3.20;;
9661;SDS011;24982;52.344;12.990;2023-08-01T03:06:13;4.50;;;3.15;;
9661;SDS011;24982;52.344;12.990;2023-08-01T03:09:17;3.55;;;3.22;;
9661;SDS011;24982;52.344;12.990;2023-08-01T03:12:19;4.57;;;3.33;;
9661;SDS011;24982;52.344;12.990;2023-08-01T03:15:21;3.60;;;3.10;;
9661;SDS011;24982;52.344;12.990;2023-08-01T03:18:23;3.92;;;3.38;;
9661;SDS011;24982;52.344;12.990;2023-08-01T03:21:25;5.55;;;3.33;;
9661;SDS011;24982;52.344;12.990;2023-08-01T03:24:28;3.70;;;3.40;;
9661;SDS011;24982;52.344;12.990;2023-08-01T03:27:30;4.55;;;3.15;;
9661;SDS011;24982;52.344;12.990;2023-08-01T03:30:33;4.43;;;2.90;;
9661;SDS011;24982;52.344;12.990;2023-08-01T03:33:35;3.33;;;3.08;;
9661;SDS011;24982;52.344;12.990;2023-08-01T03:36:37;4.32;;;3.30;;
9661;SDS011;24982;52.344;12.990;2023-08-01T03:39:40;3.30;;;3.03;;
9661;SDS011;24982;52.344;12.990;2023-08-01T03:42:42;4.03;;;3.35;;
9661;SDS011;24982;52.344;12.990;2023-08-01T03:45:45;6.15;;;3.10;;
9661;SDS011;24982;52.344;12.990;2023-08-01T03:48:47;4.43;;;3.40;;
9661;SDS011;24982;52.344;12.990;2023-08-01T03:51:51;3.35;;;2.80;;
9661;SDS011;24982;52.344;12.990;2023-08-01T03:54:55;3.38;;;3.10;;
9661;SDS011;24982;52.344;12.990;2023-08-01T03:57:57;3.40;;;3.10;;
9661;SDS011;24982;52.344;12.990;2023-08-01T04:00:59;3.92;;;3.10;;
9661;SDS011;24982;52.344;12.990;2023-08-01T04:04:01;2.97;;;2.78;;
9661;SDS011;24982;52.344;12.990;2023-08-01T04:07:03;4.00;;;3.17;;
9661;SDS011;24982;52.344;12.990;2023-08-01T04:10:07;6.35;;;3.00;;
9661;SDS011;24982;52.344;12.990;2023-08-01T04:13:10;3.60;;;3.25;;
9661;SDS011;24982;52.344;12.990;2023-08-01T04:16:12;4.13;;;2.90;;
9661;SDS011;24982;52.344;12.990;2023-08-01T04:19:14;2.85;;;2.65;;
9661;SDS011;24982;52.344;12.990;2023-08-01T04:22:16;5.80;;;3.15;;
9661;SDS011;24982;52.344;12.990;2023-08-01T04:25:19;3.05;;;2.70;;
9661;SDS011;24982;52.344;12.990;2023-08-01T04:28:24;3.15;;;2.67;;
9661;SDS011;24982;52.344;12.990;2023-08-01T04:31:26;2.85;;;2.60;;
9661;SDS011;24982;52.344;12.990;2023-08-01T04:34:28;3.55;;;3.22;;
9661;SDS011;24982;52.344;12.990;2023-08-01T04:37:30;3.03;;;2.58;;
9661;SDS011;24982;52.344;12.990;2023-08-01T04:40:33;3.67;;;2.63;;
9661;SDS011;24982;52.344;12.990;2023-08-01T04:43:35;2.83;;;2.58;;
9661;SDS011;24982;52.344;12.990;2023-08-01T04:46:37;3.00;;;2.80;;
9661;SDS011;24982;52.344;12.990;2023-08-01T04:49:39;2.50;;;2.38;;
9661;SDS011;24982;52.344;12.990;2023-08-01T04:52:41;2.72;;;2.58;;
9661;SDS011;24982;52.344;12.990;2023-08-01T04:55:45;2.08;;;1.98;;
9661;SDS011;24982;52.344;12.990;2023-08-01T04:58:46;2.42;;;2.22;;
9661;SDS011;24982;52.344;12.990;2023-08-01T05:01:48;2.65;;;2.47;;
9661;SDS011;24982;52.344;12.990;2023-08-01T05:04:51;2.40;;;2.25;;
9661;SDS011;24982;52.344;12.990;2023-08-01T05:07:53;2.97;;;2.78;;
9661;SDS011;24982;52.344;12.990;2023-08-01T05:10:56;2.65;;;2.45;;
9661;SDS011;24982;52.344;12.990;2023-08-01T05:13:58;3.00;;;2.80;;
9661;SDS011;24982;52.344;12.990;2023-08-01T05:17:00;3.40;;;3.10;;
9661;SDS011;24982;52.344;12.990;2023-08-01T05:20:02;3.10;;;2.90;;
9661;SDS011;24982;52.344;12.990;2023-08-01T05:23:05;2.70;;;2.50;;
9661;SDS011;24982;52.344;12.990;2023-08-01T05:26:08;4.15;;;2.85;;
9661;SDS011;24982;52.344;12.990;2023-08-01T05:29:10;3.13;;;2.92;;
9661;SDS011;24982;52.344;12.990;2023-08-01T05:32:12;5.68;;;3.90;;
9661;SDS011;24982;52.344;12.990;2023-08-01T05:35:14;3.20;;;2.90;;
9661;SDS011;24982;52.344;12.990;2023-08-01T05:38:17;3.90;;;3.13;;
9661;SDS011;24982;52.344;12.990;2023-08-01T05:41:20;3.67;;;2.80;;
9661;SDS011;24982;52.344;12.990;2023-08-01T05:44:22;3.00;;;2.80;;
9661;SDS011;24982;52.344;12.990;2023-08-01T05:47:24;3.45;;;2.95;;
9661;SDS011;24982;52.344;12.990;2023-08-01T05:50:26;3.05;;;2.75;;
9661;SDS011;24982;52.344;12.990;2023-08-01T05:53:28;2.67;;;2.47;;
9661;SDS011;24982;52.344;12.990;2023-08-01T05:56:31;3.00;;;2.80;;
9661;SDS011;24982;52.344;12.990;2023-08-01T05:59:34;3.72;;;2.80;;
9661;SDS011;24982;52.344;12.990;2023-08-01T06:02:36;5.90;;;2.70;;
9661;SDS011;24982;52.344;12.990;2023-08-01T06:05:38;3.42;;;3.13;;
9661;SDS011;24982;52.344;12.990;2023-08-01T06:08:40;3.05;;;2.85;;
9661;SDS011;24982;52.344;12.990;2023-08-01T06:11:43;2.75;;;2.55;;
9661;SDS011;24982;52.344;12.990;2023-08-01T06:14:46;3.97;;;2.80;;
9661;SDS011;24982;52.344;12.990;2023-08-01T06:17:48;2.72;;;2.53;;
9661;SDS011;24982;52.344;12.990;2023-08-01T06:20:50;3.03;;;2.70;;
9661;SDS011;24982;52.344;12.990;2023-08-01T06:23:52;3.30;;;2.80;;
9661;SDS011;24982;52.344;12.990;2023-08-01T06:26:55;4.07;;;2.72;;
9661;SDS011;24982;52.344;12.990;2023-08-01T06:29:57;2.60;;;2.40;;
9661;SDS011;24982;52.344;12.990;2023-08-01T06:32:59;2.67;;;2.40;;
9661;SDS011;24982;52.344;12.990;2023-08-01T06:36:01;2.90;;;2.70;;
9661;SDS011;24982;52.344;12.990;2023-08-01T06:39:03;2.95;;;2.75;;
9661;SDS011;24982;52.344;12.990;2023-08-01T06:42:07;3.17;;;2.70;;
9661;SDS011;24982;52.344;12.990;2023-08-01T06:45:09;5.13;;;2.67;;
9661;SDS011;24982;52.344;12.990;2023-08-01T06:48:11;3.17;;;2.47;;
9661;SDS011;24982;52.344;12.990;2023-08-01T06:51:13;2.60;;;2.40;;
9661;SDS011;24982;52.344;12.990;2023-08-01T06:54:15;3.72;;;2.55;;
9661;SDS011;24982;52.344;12.990;2023-08-01T06:57:18;2.72;;;2.53;;
9661;SDS011;24982;52.344;12.990;2023-08-01T07:00:20;2.83;;;2.65;;
9661;SDS011;24982;52.344;12.990;2023-08-01T07:03:22;2.33;;;2.22;;
9661;SDS011;24982;52.344;12.990;2023-08-01T07:06:24;2.63;;;2.50;;
9661;SDS011;24982;52.344;12.990;2023-08-01T07:09:26;2.40;;;2.25;;
9661;SDS011;24982;52.344;12.990;2023-08-01T07:12:30;2.70;;;2.50;;
9661;SDS011;24982;52.344;12.990;2023-08-01T07:15:32;3.67;;;2.40;;
9661;SDS011;24982;52.344;12.990;2023-08-01T07:18:34;3.08;;;2.30;;
9661;SDS011;24982;52.344;12.990;2023-08-01T07:21:36;2.45;;;2.10;;
9661;SDS011;24982;52.344;12.990;2023-08-01T07:24:38;2.88;;;2.35;;
9661;SDS011;24982;52.344;12.990;2023-08-01T07:27:41;2.25;;;2.13;;
9661;SDS011;24982;52.344;12.990;2023-08-01T07:30:43;2.35;;;2.25;;
9661;SDS011;24982;52.344;12.990;2023-08-01T07:33:45;3.03;;;1.90;;
9661;SDS011;24982;52.344;12.990;2023-08-01T07:36:48;2.20;;;2.10;;
9661;SDS011;24982;52.344;12.990;2023-08-01T07:39:50;1.90;;;1.80;;
9661;SDS011;24982;52.344;12.990;2023-08-01T07:42:53;2.33;;;2.22;;
9661;SDS011;24982;52.344;12.990;2023-08-01T07:45:55;2.00;;;1.80;;
9661;SDS011;24982;52.344;12.990;2023-08-01T07:48:58;2.60;;;2.30;;
9661;SDS011;24982;52.344;12.990;2023-08-01T07:52:00;1.80;;;1.65;;
9661;SDS011;24982;52.344;12.990;2023-08-01T07:55:02;4.63;;;1.80;;
9661;SDS011;24982;52.344;12.990;2023-08-01T07:58:06;1.83;;;1.73;;
9661;SDS011;24982;52.344;12.990;2023-08-01T08:01:08;1.98;;;1.73;;
9661;SDS011;24982;52.344;12.990;2023-08-01T08:04:10;1.90;;;1.80;;
9661;SDS011;24982;52.344;12.990;2023-08-01T08:07:13;1.92;;;1.58;;
9661;SDS011;24982;52.344;12.990;2023-08-01T08:10:15;2.40;;;1.60;;
9661;SDS011;24982;52.344;12.990;2023-08-01T08:13:18;1.40;;;1.25;;
9661;SDS011;24982;52.344;12.990;2023-08-01T08:16:20;1.33;;;1.30;;
9661;SDS011;24982;52.344;12.990;2023-08-01T08:19:22;1.40;;;1.30;;
9661;SDS011;24982;52.344;12.990;2023-08-01T08:22:25;2.78;;;1.27;;
9661;SDS011;24982;52.344;12.990;2023-08-01T08:25:28;1.20;;;1.20;;
9661;SDS011;24982;52.344;12.990;2023-08-01T08:28:31;1.45;;;1.20;;
9661;SDS011;24982;52.344;12.990;2023-08-01T08:31:34;1.52;;;1.27;;
9661;SDS011;24982;52.344;12.990;2023-08-01T08:34:36;1.10;;;1.10;;
9661;SDS011;24982;52.344;12.990;2023-08-01T08:37:39;1.10;;;1.10;;
9661;SDS011;24982;52.344;12.990;2023-08-01T08:40:43;1.10;;;1.10;;
9661;SDS011;24982;52.344;12.990;2023-08-01T08:43:51;1.13;;;1.13;;
9661;SDS011;24982;52.344;12.990;2023-08-01T08:46:57;1.10;;;1.10;;
9661;SDS011;24982;52.344;12.990;2023-08-01T08:50:05;0.98;;;0.98;;
9661;SDS011;24982;52.344;12.990;2023-08-01T08:53:07;1.20;;;1.20;;
9661;SDS011;24982;52.344;12.990;2023-08-01T08:56:13;1.70;;;1.30;;
9661;SDS011;24982;52.344;12.990;2023-08-01T08:59:17;1.20;;;1.20;;
9661;SDS011;24982;52.344;12.990;2023-08-01T09:02:20;1.17;;;1.17;;
9661;SDS011;24982;52.344;12.990;2023-08-01T09:05:26;2.65;;;1.20;;
9661;SDS011;24982;52.344;12.990;2023-08-01T09:08:34;1.95;;;1.10;;
9661;SDS011;24982;52.344;12.990;2023-08-01T09:11:38;1.58;;;1.08;;
9661;SDS011;24982;52.344;12.990;2023-08-01T09:14:45;0.90;;;0.90;;
9661;SDS011;24982;52.344;12.990;2023-08-01T09:17:48;1.27;;;1.25;;
9661;SDS011;24982;52.344;12.990;2023-08-01T09:20:51;1.08;;;1.08;;
9661;SDS011;24982;52.344;12.990;2023-08-01T09:23:53;2.28;;;0.90;;
9661;SDS011;24982;52.344;12.990;2023-08-01T09:27:01;0.95;;;0.95;;
9661;SDS011;24982;52.344;12.990;2023-08-01T09:30:09;1.75;;;1.10;;
9661;SDS011;24982;52.344;12.990;2023-08-01T09:33:13;0.80;;;0.80;;
9661;SDS011;24982;52.344;12.990;2023-08-01T09:36:20;1.33;;;0.73;;
9661;SDS011;24982;52.344;12.990;2023-08-01T09:39:22;1.25;;;1.15;;
9661;SDS011;24982;52.344;12.990;2023-08-01T09:42:24;2.13;;;0.90;;
9661;SDS011;24982;52.344;12.990;2023-08-01T09:45:27;0.85;;;0.85;;
9661;SDS011;24982;52.344;12.990;2023-08-01T09:48:29;0.88;;;0.88;;
9661;SDS011;24982;52.344;12.990;2023-08-01T09:51:32;1.00;;;1.00;;
9661;SDS011;24982;52.344;12.990;2023-08-01T09:54:34;0.90;;;0.90;;
9661;SDS011;24982;52.344;12.990;2023-08-01T09:57:36;2.92;;;1.00;;
9661;SDS011;24982;52.344;12.990;2023-08-01T10:00:43;2.28;;;0.80;;
9661;SDS011;24982;52.344;12.990;2023-08-01T10:03:46;0.80;;;0.80;;
9661;SDS011;24982;52.344;12.990;2023-08-01T10:06:51;0.70;;;0.70;;
9661;SDS011;24982;52.344;12.990;2023-08-01T10:09:58;0.70;;;0.70;;
9661;SDS011;24982;52.344;12.990;2023-08-01T10:13:00;0.60;;;0.60;;
9661;SDS011;24982;52.344;12.990;2023-08-01T10:16:05;0.70;;;0.70;;
9661;SDS011;24982;52.344;12.990;2023-08-01T10:19:07;0.60;;;0.60;;
9661;SDS011;24982;52.344;12.990;2023-08-01T10:22:12;1.65;;;0.70;;
9661;SDS011;24982;52.344;12.990;2023-08-01T10:25:15;0.73;;;0.73;;
9661;SDS011;24982;52.344;12.990;2023-08-01T10:28:18;0.80;;;0.80;;
9661;SDS011;24982;52.344;12.990;2023-08-01T10:31:21;0.98;;;0.98;;
9661;SDS011;24982;52.344;12.990;2023-08-01T10:34:23;1.38;;;0.93;;
9661;SDS011;24982;52.344;12.990;2023-08-01T10:37:26;1.20;;;0.98;;
9661;SDS011;24982;52.344;12.990;2023-08-01T10:40:32;0.80;;;0.80;;
9661;SDS011;24982;52.344;12.990;2023-08-01T10:43:35;0.80;;;0.80;;
9661;SDS011;24982;52.344;12.990;2023-08-01T10:46:48;0.95;;;0.95;;
9661;SDS011;24982;52.344;12.990;2023-08-01T10:49:51;1.55;;;1.00;;
9661;SDS011;24982;52.344;12.990;2023-08-01T10:53:00;0.90;;;0.90;;
9661;SDS011;24982;52.344;12.990;2023-08-01T10:56:04;1.02;;;1.02;;
9661;SDS011;24982;52.344;12.990;2023-08-01T10:59:06;1.13;;;1.10;;
9661;SDS011;24982;52.344;12.990;2023-08-01T11:02:10;1.30;;;1.30;;
9661;SDS011;24982;52.344;12.990;2023-08-01T11:05:12;3.95;;;1.70;;
9661;SDS011;24982;52.344;12.990;2023-08-01T11:08:14;2.50;;;1.50;;
9661;SDS011;24982;52.344;12.990;2023-08-01T11:11:16;2.90;;;1.73;;
9661;SDS011;24982;52.344;12.990;2023-08-01T11:14:19;3.80;;;1.80;;
9661;SDS011;24982;52.344;12.990;2023-08-01T11:17:23;1.90;;;1.70;;
9661;SDS011;24982;52.344;12.990;2023-08-01T11:20:26;2.60;;;1.95;;
9661;SDS011;24982;52.344;12.990;2023-08-01T11:23:29;2.72;;;2.40;;
9661;SDS011;24982;52.344;12.990;2023-08-01T11:26:31;3.90;;;2.40;;
9661;SDS011;24982;52.344;12.990;2023-08-01T11:29:37;2.90;;;2.70;;
9661;SDS011;24982;52.344;12.990;2023-08-01T11:32:41;3.42;;;2.90;;
9661;SDS011;24982;52.344;12.990;2023-08-01T11:35:43;3.13;;;2.92;;
9661;SDS011;24982;52.344;12.990;2023-08-01T11:38:46;3.15;;;2.88;;
9661;SDS011;24982;52.344;12.990;2023-08-01T11:41:48;3.30;;;3.00;;
9661;SDS011;24982;52.344;12.990;2023-08-01T11:44:50;5.90;;;3.20;;
9661;SDS011;24982;52.344;12.990;2023-08-01T11:47:53;3.67;;;2.90;;
9661;SDS011;24982;52.344;12.990;2023-08-01T11:50:58;5.07;;;2.90;;
9661;SDS011;24982;52.344;12.990;2023-08-01T11:54:01;3.58;;;3.00;;
9661;SDS011;24982;52.344;12.990;2023-08-01T11:57:04;3.88;;;2.95;;
9661;SDS011;24982;52.344;12.990;2023-08-01T12:00:09;3.45;;;2.97;;
9661;SDS011;24982;52.344;12.990;2023-08-01T12:03:23;5.28;;;3.20;;
9661;SDS011;24982;52.344;12.990;2023-08-01T12:06:25;3.28;;;2.97;;
9661;SDS011;24982;52.344;12.990;2023-08-01T12:09:30;3.25;;;3.05;;
9661;SDS011;24982;52.344;12.990;2023-08-01T12:12:42;3.22;;;2.92;;
9661;SDS011;24982;52.344;12.990;2023-08-01T12:15:46;3.20;;;2.90;;
9661;SDS011;24982;52.344;12.990;2023-08-01T12:18:49;4.80;;;3.40;;
9661;SDS011;24982;52.344;12.990;2023-08-01T12:21:51;4.03;;;3.63;;
9661;SDS011;24982;52.344;12.990;2023-08-01T12:24:53;3.72;;;3.33;;
9661;SDS011;24982;52.344;12.990;2023-08-01T12:27:55;4.72;;;3.33;;
9661;SDS011;24982;52.344;12.990;2023-08-01T12:30:57;4.57;;;3.40;;
9661;SDS011;24982;52.344;12.990;2023-08-01T12:34:00;4.57;;;3.42;;
9661;SDS011;24982;52.344;12.990;2023-08-01T12:37:02;5.35;;;3.45;;
9661;SDS011;24982;52.344;12.990;2023-08-01T12:40:05;6.45;;;3.67;;
9661;SDS011;24982;52.344;12.990;2023-08-01T12:43:08;5.95;;;3.25;;
9661;SDS011;24982;52.344;12.990;2023-08-01T12:46:10;3.78;;;3.10;;
9661;SDS011;24982;52.344;12.990;2023-08-01T12:49:13;3.60;;;3.30;;
9661;SDS011;24982;52.344;12.990;2023-08-01T12:52:21;3.40;;;3.08;;
9661;SDS011;24982;52.344;12.990;2023-08-01T12:55:24;4.45;;;3.28;;
9661;SDS011;24982;52.344;12.990;2023-08-01T12:58:26;5.95;;;3.60;;
9661;SDS011;24982;52.344;12.990;2023-08-01T13:01:28;3.83;;;3.40;;
9661;SDS011;24982;52.344;12.990;2023-08-01T13:04:31;3.40;;;3.08;;
9661;SDS011;24982;52.344;12.990;2023-08-01T13:07:33;4.47;;;3.30;;
9661;SDS011;24982;52.344;12.990;2023-08-01T13:10:36;4.68;;;3.17;;
9661;SDS011;24982;52.344;12.990;2023-08-01T13:13:39;5.28;;;3.28;;
9661;SDS011;24982;52.344;12.990;2023-08-01T13:16:42;3.10;;;2.80;;
9661;SDS011;24982;52.344;12.990;2023-08-01T13:19:45;3.22;;;2.92;;
9661;SDS011;24982;52.344;12.990;2023-08-01T13:22:48;4.43;;;3.20;;
9661;SDS011;24982;52.344;12.990;2023-08-01T13:25:51;3.47;;;2.95;;
9661;SDS011;24982;52.344;12.990;2023-08-01T13:28:53;3.33;;;3.10;;
9661;SDS011;24982;52.344;12.990;2023-08-01T13:31:55;3.33;;;3.03;;
9661;SDS011;24982;52.344;12.990;2023-08-01T13:34:59;3.72;;;2.97;;
9661;SDS011;24982;52.344;12.990;2023-08-01T13:38:01;2.80;;;2.60;;
9661;SDS011;24982;52.344;12.990;2023-08-01T13:41:04;4.30;;;3.00;;
9661;SDS011;24982;52.344;12.990;2023-08-01T13:44:06;2.78;;;2.58;;
9661;SDS011;24982;52.344;12.990;2023-08-01T13:47:08;3.30;;;2.80;;
9661;SDS011;24982;52.344;12.990;2023-08-01T13:50:12;4.18;;;2.53;;
9661;SDS011;24982;52.344;12.990;2023-08-01T13:53:15;2.88;;;2.30;;
9661;SDS011;24982;52.344;12.990;2023-08-01T13:56:17;5.00;;;3.13;;
9661;SDS011;24982;52.344;12.990;2023-08-01T13:59:19;5.47;;;2.80;;
9661;SDS011;24982;52.344;12.990;2023-08-01T14:02:21;2.67;;;2.50;;
9661;SDS011;24982;52.344;12.990;2023-08-01T14:05:25;2.58;;;2.38;;
9661;SDS011;24982;52.344;12.990;2023-08-01T14:08:28;3.03;;;2.45;;
9661;SDS011;24982;52.344;12.990;2023-08-01T14:11:30;5.20;;;2.70;;
9661;SDS011;24982;52.344;12.990;2023-08-01T14:14:32;3.92;;;2.70;;
9661;SDS011;24982;52.344;12.990;2023-08-01T14:17:34;7.18;;;2.60;;
9661;SDS011;24982;52.344;12.990;2023-08-01T14:20:38;3.25;;;2.60;;
9661;SDS011;24982;52.344;12.990;2023-08-01T14:23:40;3.03;;;2.72;;
9661;SDS011;24982;52.344;12.990;2023-08-01T14:26:42;3.42;;;2.78;;
9661;SDS011;24982;52.344;12.990;2023-08-01T14:29:44;3.75;;;2.65;;
9661;SDS011;24982;52.344;12.990;2023-08-01T14:32:46;3.00;;;2.78;;
9661;SDS011;24982;52.344;12.990;2023-08-01T14:35:49;4.35;;;2.30;;
9661;SDS011;24982;52.344;12.990;2023-08-01T14:38:51;2.65;;;2.45;;
9661;SDS011;24982;52.344;12.990;2023-08-01T14:41:55;3.70;;;2.47;;
9661;SDS011;24982;52.344;12.990;2023-08-01T14:44:57;2.47;;;2.28;;
9661;SDS011;24982;52.344;12.990;2023-08-01T14:47:59;5.78;;;1.90;;
9661;SDS011;24982;52.344;12.990;2023-08-01T14:51:05;3.00;;;2.00;;
9661;SDS011;24982;52.344;12.990;2023-08-01T14:54:08;2.45;;;2.10;;
9661;SDS011;24982;52.344;12.990;2023-08-01T14:57:10;2.28;;;2.15;;
9661;SDS011;24982;52.344;12.990;2023-08-01T15:00:12;2.92;;;2.15;;
9661;SDS011;24982;52.344;12.990;2023-08-01T15:03:15;4.25;;;1.85;;
9661;SDS011;24982;52.344;12.990;2023-08-01T15:06:18;3.42;;;2.25;;
9661;SDS011;24982;52.344;12.990;2023-08-01T15:09:20;3.58;;;2.13;;
9661;SDS011;24982;52.344;12.990;2023-08-01T15:12:22;3.17;;;1.80;;
9661;SDS011;24982;52.344;12.990;2023-08-01T15:15:26;1.70;;;1.60;;
9661;SDS011;24982;52.344;12.990;2023-08-01T15:18:28;3.22;;;1.75;;
9661;SDS011;24982;52.344;12.990;2023-08-01T15:21:31;2.58;;;1.63;;
9661;SDS011;24982;52.344;12.990;2023-08-01T15:24:33;2.50;;;2.03;;
9661;SDS011;24982;52.344;12.990;2023-08-01T15:27:35;3.72;;;1.80;;
9661;SDS011;24982;52.344;12.990;2023-08-01T15:30:37;2.65;;;2.08;;
9661;SDS011;24982;52.344;12.990;2023-08-01T15:33:40;2.45;;;1.90;;
9661;SDS011;24982;52.344;12.990;2023-08-01T15:36:44;1.90;;;1.80;;
9661;SDS011;24982;52.344;12.990;2023-08-01T15:39:48;2.88;;;2.10;;
9661;SDS011;24982;52.344;12.990;2023-08-01T15:42:50;2.75;;;1.92;;
9661;SDS011;24982;52.344;12.990;2023-08-01T15:45:52;3.63;;;2.08;;
9661;SDS011;24982;52.344;12.990;2023-08-01T15:48:53;2.45;;;2.28;;
9661;SDS011;24982;52.344;12.990;2023-08-01T15:51:57;2.63;;;2.30;;
9661;SDS011;24982;52.344;12.990;2023-08-01T15:54:59;2.83;;;1.90;;
9661;SDS011;24982;52.344;12.990;2023-08-01T15:58:01;3.13;;;2.00;;
9661;SDS011;24982;52.344;12.990;2023-08-01T16:01:03;1.90;;;1.80;;
9661;SDS011;24982;52.344;12.990;2023-08-01T16:04:06;1.98;;;1.88;;
9661;SDS011;24982;52.344;12.990;2023-08-01T16:07:10;2.90;;;1.75;;
9661;SDS011;24982;52.344;12.990;2023-08-01T16:10:12;3.08;;;1.98;;
9661;SDS011;24982;52.344;12.990;2023-08-01T16:13:14;1.80;;;1.70;;
9661;SDS011;24982;52.344;12.990;2023-08-01T16:16:16;2.47;;;1.88;;
9661;SDS011;24982;52.344;12.990;2023-08-01T16:19:17;1.77;;;1.60;;
9661;SDS011;24982;52.344;12.990;2023-08-01T16:22:21;2.33;;;1.88;;
9661;SDS011;24982;52.344;12.990;2023-08-01T16:25:23;1.92;;;1.83;;
9661;SDS011;24982;52.344;12.990;2023-08-01T16:28:25;2.97;;;2.03;;
9661;SDS011;24982;52.344;12.990;2023-08-01T16:31:27;3.08;;;1.70;;
9661;SDS011;24982;52.344;12.990;2023-08-01T16:34:30;2.42;;;2.22;;
9661;SDS011;24982;52.344;12.990;2023-08-01T16:37:34;2.10;;;1.88;;
9661;SDS011;24982;52.344;12.990;2023-08-01T16:40:37;1.90;;;1.80;;
9661;SDS011;24982;52.344;12.990;2023-08-01T16:43:39;2.45;;;1.80;;
9661;SDS011;24982;52.344;12.990;2023-08-01T16:46:41;1.85;;;1.70;;
9661;SDS011;24982;52.344;12.990;2023-08-01T16:49:45;2.00;;;1.80;;
9661;SDS011;24982;52.344;12.990;2023-08-01T16:52:49;1.80;;;1.70;;
9661;SDS011;24982;52.344;12.990;2023-08-01T16:55:52;1.70;;;1.60;;
9661;SDS011;24982;52.344;12.990;2023-08-01T16:58:55;2.33;;;1.70;;
9661;SDS011;24982;52.344;12.990;2023-08-01T17:01:57;2.65;;;1.80;;
9661;SDS011;24982;52.344;12.990;2023-08-01T17:04:59;3.17;;;1.70;;
9661;SDS011;24982;52.344;12.990;2023-08-01T17:08:03;1.83;;;1.73;;
9661;SDS011;24982;52.344;12.990;2023-08-01T17:11:05;2.97;;;1.80;;
9661;SDS011;24982;52.344;12.990;2023-08-01T17:14:07;2.40;;;1.90;;
9661;SDS011;24982;52.344;12.990;2023-08-01T17:17:09;1.88;;;1.70;;
9661;SDS011;24982;52.344;12.990;2023-08-01T17:20:11;2.22;;;1.90;;
9661;SDS011;24982;52.344;12.990;2023-08-01T17:23:15;3.17;;;2.40;;
9661;SDS011;24982;52.344;12.990;2023-08-01T17:26:17;3.28;;;2.00;;
9661;SDS011;24982;52.344;12.990;2023-08-01T17:29:19;3.13;;;2.05;;
9661;SDS011;24982;52.344;12.990;2023-08-01T17:32:21;4.72;;;2.50;;
9661;SDS011;24982;52.344;12.990;2023-08-01T17:35:23;2.35;;;2.15;;
9661;SDS011;24982;52.344;12.990;2023-08-01T17:38:26;1.80;;;1.70;;
9661;SDS011;24982;52.344;12.990;2023-08-01T17:41:28;1.92;;;1.67;;
9661;SDS011;24982;52.344;12.990;2023-08-01T17:44:31;3.63;;;2.00;;
9661;SDS011;24982;52.344;12.990;2023-08-01T17:47:33;3.47;;;1.95;;
9661;SDS011;24982;52.344;12.990;2023-08-01T17:50:35;1.55;;;1.50;;
9661;SDS011;24982;52.344;12.990;2023-08-01T17:53:38;3.38;;;1.83;;
9661;SDS011;24982;52.344;12.990;2023-08-01T17:56:43;2.00;;;1.90;;
9661;SDS011;24982;52.344;12.990;2023-08-01T17:59:45;1.60;;;1.50;;
9661;SDS011;24982;52.344;12.990;2023-08-01T18:02:47;1.98;;;1.85;;
9661;SDS011;24982;52.344;12.990;2023-08-01T18:05:49;1.83;;;1.70;;
9661;SDS011;24982;52.344;12.990;2023-08-01T18:08:53;4.38;;;1.90;;
9661;SDS011;24982;52.344;12.990;2023-08-01T18:11:55;2.90;;;2.10;;
9661;SDS011;24982;52.344;12.990;2023-08-01T18:14:57;2.85;;;1.90;;
9661;SDS011;24982;52.344;12.990;2023-08-01T18:17:59;1.90;;;1.80;;
9661;SDS011;24982;52.344;12.990;2023-08-01T18:21:01;3.83;;;2.10;;